createdAt,value
2022-12-03T00:01:15.501Z,38.83
2022-12-03T00:03:47.413Z,30.17
2022-12-03T00:06:13.893Z,34.30
2022-12-03T00:08:40.210Z,35.40
2022-12-03T00:11:06.518Z,34.40
2022-12-03T00:13:32.886Z,38.23
2022-12-03T00:15:59.423Z,35.30
2022-12-03T00:18:28.013Z,37.40
2022-12-03T00:20:57.492Z,39.73
2022-12-03T00:23:29.762Z,40.50
2022-12-03T00:25:56.181Z,45.40
2022-12-03T00:28:24.862Z,40.50
2022-12-03T00:30:58.218Z,44.50
2022-12-03T00:33:24.691Z,42.17
2022-12-03T00:35:51.039Z,36.10
2022-12-03T00:38:17.369Z,38.13
2022-12-03T00:40:43.773Z,39.37
2022-12-03T00:43:11.886Z,36.53
2022-12-03T00:45:38.249Z,38.17
2022-12-03T00:48:04.681Z,40.50
2022-12-03T00:50:31.054Z,42.30
2022-12-03T00:52:57.405Z,36.43
2022-12-03T00:55:23.729Z,41.50
2022-12-03T00:57:50.269Z,41.00
2022-12-03T01:00:16.762Z,42.40
2022-12-03T01:02:43.848Z,39.60
2022-12-03T01:05:11.312Z,37.67
2022-12-03T01:07:37.711Z,46.10
2022-12-03T01:10:05.251Z,39.43
2022-12-03T01:12:31.569Z,45.23
2022-12-03T01:14:57.922Z,41.27
2022-12-03T01:17:24.328Z,43.57
2022-12-03T01:19:52.453Z,37.83
2022-12-03T01:22:19.225Z,40.70
2022-12-03T01:24:45.623Z,43.40
2022-12-03T01:27:11.922Z,44.17
2022-12-03T01:29:38.444Z,42.40
2022-12-03T01:32:16.611Z,49.03
2022-12-03T01:34:47.852Z,44.60
2022-12-03T01:37:14.521Z,45.33
2022-12-03T01:39:41.232Z,43.90
2022-12-03T01:42:11.874Z,47.57
2022-12-03T01:44:39.651Z,42.30
2022-12-03T01:47:10.749Z,49.97
2022-12-03T01:49:45.674Z,46.77
2022-12-03T01:52:15.328Z,49.37
2022-12-03T01:54:46.186Z,40.83
2022-12-03T01:57:27.227Z,49.67
2022-12-03T01:59:55.838Z,43.27
2022-12-03T02:02:25.675Z,53.63
2022-12-03T02:04:55.820Z,50.23
2022-12-03T02:07:24.191Z,49.20
2022-12-03T02:09:50.749Z,43.77
2022-12-03T02:12:21.339Z,44.07
2022-12-03T02:14:47.783Z,46.63
2022-12-03T02:17:14.333Z,48.13
2022-12-03T02:19:40.841Z,49.70
2022-12-03T02:22:25.010Z,46.33
2022-12-03T02:25:05.448Z,49.70
2022-12-03T02:27:31.865Z,50.40
2022-12-03T02:29:58.331Z,46.60
2022-12-03T02:32:24.710Z,50.63
2022-12-03T02:34:52.104Z,47.70
2022-12-03T02:37:24.154Z,54.53
2022-12-03T02:39:54.627Z,60.03
2022-12-03T02:42:36.961Z,50.80
2022-12-03T02:45:06.528Z,58.03
2022-12-03T02:47:49.604Z,55.43
2022-12-03T02:50:21.828Z,52.60
2022-12-03T02:52:49.395Z,46.57
2022-12-03T02:55:17.609Z,56.90
2022-12-03T02:57:46.746Z,54.63
2022-12-03T03:00:13.958Z,56.93
2022-12-03T03:02:41.797Z,55.53
2022-12-03T03:05:11.621Z,57.53
2022-12-03T03:07:39.501Z,56.00
2022-12-03T03:10:08.997Z,57.43
2022-12-03T03:12:39.221Z,59.60
2022-12-03T03:15:07.611Z,54.17
2022-12-03T03:17:34.218Z,56.20
2022-12-03T03:20:00.878Z,53.70
2022-12-03T03:22:34.711Z,54.40
2022-12-03T03:25:01.669Z,51.90
2022-12-03T03:27:28.333Z,52.83
2022-12-03T03:29:56.418Z,57.47
2022-12-03T03:32:22.879Z,56.27
2022-12-03T03:34:49.269Z,52.90
2022-12-03T03:37:15.798Z,55.30
2022-12-03T03:39:42.263Z,55.73
2022-12-03T03:42:09.419Z,48.60
2022-12-03T03:44:36.218Z,47.67
2022-12-03T03:47:02.797Z,48.10
2022-12-03T03:49:29.433Z,44.87
2022-12-03T03:51:55.943Z,48.93
2022-12-03T03:54:23.211Z,47.00
2022-12-03T03:56:49.869Z,43.20
2022-12-03T03:59:16.321Z,47.00
2022-12-03T04:01:45.009Z,43.83
2022-12-03T04:04:19.658Z,47.57
2022-12-03T04:06:46.651Z,42.20
2022-12-03T04:09:13.078Z,44.00
2022-12-03T04:11:57.754Z,46.20
2022-12-03T04:14:24.319Z,46.57
2022-12-03T04:16:50.704Z,43.50
2022-12-03T04:19:17.131Z,44.27
2022-12-03T04:22:02.157Z,40.87
2022-12-03T04:24:28.522Z,46.33
2022-12-03T04:27:13.229Z,43.37
2022-12-03T04:29:39.558Z,43.87
2022-12-03T04:32:24.611Z,48.93
2022-12-03T04:35:09.727Z,47.73
2022-12-03T04:37:36.318Z,42.60
2022-12-03T04:40:23.142Z,42.67
2022-12-03T04:42:49.664Z,44.80
2022-12-03T04:45:16.081Z,34.80
2022-12-03T04:47:42.407Z,41.50
2022-12-03T04:50:09.168Z,46.23
2022-12-03T04:52:35.519Z,43.47
2022-12-03T04:55:01.865Z,40.30
2022-12-03T04:57:28.190Z,40.30
2022-12-03T04:59:54.522Z,38.17
2022-12-03T05:02:20.926Z,45.13
2022-12-03T05:04:47.325Z,41.90
2022-12-03T05:07:13.656Z,37.70
2022-12-03T05:09:39.979Z,40.70
2022-12-03T05:12:06.606Z,43.83
2022-12-03T05:14:32.926Z,43.63
2022-12-03T05:16:59.301Z,37.47
2022-12-03T05:19:45.741Z,43.23
2022-12-03T05:22:12.097Z,40.50
2022-12-03T05:24:38.438Z,44.87
2022-12-03T05:27:04.758Z,39.20
2022-12-03T05:29:31.090Z,37.10
2022-12-03T05:31:57.417Z,35.27
2022-12-03T05:34:23.754Z,40.40
2022-12-03T05:36:50.141Z,40.13
2022-12-03T05:39:16.453Z,41.17
2022-12-03T05:42:01.571Z,38.27
2022-12-03T05:44:27.897Z,35.87
2022-12-03T05:46:54.221Z,40.70
2022-12-03T05:49:20.578Z,41.20
2022-12-03T05:51:46.898Z,41.77
2022-12-03T05:54:13.293Z,42.07
2022-12-03T05:56:39.636Z,44.20
2022-12-03T05:59:06.009Z,32.90
2022-12-03T06:01:32.353Z,38.00
2022-12-03T06:03:58.720Z,35.50
2022-12-03T06:06:25.258Z,37.50
2022-12-03T06:08:51.589Z,40.70
2022-12-03T06:11:18.140Z,45.30
2022-12-03T06:13:44.526Z,43.23
2022-12-03T06:16:10.935Z,45.50
2022-12-03T06:18:37.270Z,34.47
2022-12-03T06:21:03.650Z,39.97
2022-12-03T06:23:30.004Z,31.90
2022-12-03T06:25:56.328Z,36.90
2022-12-03T06:28:22.713Z,33.37
2022-12-03T06:30:49.138Z,36.37
2022-12-03T06:33:15.482Z,32.23
2022-12-03T06:35:41.835Z,38.80
2022-12-03T06:38:08.160Z,35.73
2022-12-03T06:40:34.507Z,33.70
2022-12-03T06:43:00.850Z,36.13
2022-12-03T06:45:27.229Z,34.33
2022-12-03T06:47:53.549Z,36.63
2022-12-03T06:50:19.895Z,34.20
2022-12-03T06:52:46.416Z,33.80
2022-12-03T06:55:12.805Z,40.23
2022-12-03T06:57:39.310Z,41.67
2022-12-03T07:00:08.672Z,36.87
2022-12-03T07:02:35.174Z,34.03
2022-12-03T07:05:01.770Z,36.97
2022-12-03T07:07:28.330Z,40.80
2022-12-03T07:09:54.687Z,33.27
2022-12-03T07:12:21.467Z,42.00
2022-12-03T07:14:47.805Z,34.90
2022-12-03T07:17:14.296Z,36.10
2022-12-03T07:19:40.622Z,34.70
2022-12-03T07:22:06.937Z,32.10
2022-12-03T07:24:33.310Z,32.80
2022-12-03T07:26:59.669Z,36.83
2022-12-03T07:29:26.051Z,32.47
2022-12-03T07:31:52.526Z,38.10
2022-12-03T07:34:18.977Z,31.63
2022-12-03T07:36:45.338Z,35.83
2022-12-03T07:39:12.909Z,33.67
2022-12-03T07:41:39.445Z,36.80
2022-12-03T07:44:10.820Z,30.43
2022-12-03T07:46:40.479Z,32.40
2022-12-03T07:49:06.855Z,37.13
2022-12-03T07:51:33.254Z,32.37
2022-12-03T07:53:59.682Z,38.90
2022-12-03T07:56:26.018Z,34.73
2022-12-03T07:58:52.321Z,36.40
2022-12-03T08:01:18.690Z,33.77
2022-12-03T08:03:45.121Z,30.20
2022-12-03T08:06:11.461Z,30.90
2022-12-03T08:08:37.850Z,27.63
2022-12-03T08:11:04.295Z,31.57
2022-12-03T08:13:30.726Z,31.53
2022-12-03T08:16:00.565Z,27.63
2022-12-03T08:18:28.109Z,32.57
2022-12-03T08:20:54.642Z,32.33
2022-12-03T08:23:23.474Z,34.03
2022-12-03T08:25:51.217Z,27.47
2022-12-03T08:28:26.527Z,33.30
2022-12-03T08:31:02.568Z,27.67
2022-12-03T08:33:36.727Z,30.40
2022-12-03T08:36:31.446Z,31.30
2022-12-03T08:39:01.985Z,32.17
2022-12-03T08:41:48.709Z,37.40
2022-12-03T08:44:27.361Z,31.40
2022-12-03T08:47:08.797Z,29.97
2022-12-03T08:49:35.965Z,30.87
2022-12-03T08:52:13.138Z,33.30
2022-12-03T08:54:39.484Z,30.37
2022-12-03T08:57:22.570Z,31.37
2022-12-03T08:59:50.321Z,37.23
2022-12-03T09:02:26.846Z,34.80
2022-12-03T09:04:55.039Z,34.37
2022-12-03T09:07:21.487Z,31.03
2022-12-03T09:09:48.095Z,34.13
2022-12-03T09:12:14.724Z,27.83
2022-12-03T09:14:41.085Z,33.77
2022-12-03T09:17:07.490Z,29.63
2022-12-03T09:19:34.130Z,30.03
2022-12-03T09:22:00.725Z,30.67
2022-12-03T09:24:27.294Z,32.07
2022-12-03T09:26:53.626Z,32.70
2022-12-03T09:29:20.103Z,32.83
2022-12-03T09:31:46.495Z,26.93
2022-12-03T09:34:12.901Z,31.50
2022-12-03T09:36:39.298Z,29.73
2022-12-03T09:39:05.666Z,29.20
2022-12-03T09:41:32.201Z,38.87
2022-12-03T09:44:06.205Z,33.40
2022-12-03T09:46:36.140Z,34.90
2022-12-03T09:49:05.102Z,31.30
2022-12-03T09:51:36.031Z,34.17
2022-12-03T09:54:07.103Z,32.87
2022-12-03T09:56:37.078Z,32.50
2022-12-03T09:59:06.857Z,31.13
2022-12-03T10:01:33.272Z,29.73
2022-12-03T10:03:59.809Z,32.67
2022-12-03T10:06:26.189Z,30.30
2022-12-03T10:08:55.924Z,27.10
2022-12-03T10:11:25.465Z,29.20
2022-12-03T10:13:54.387Z,28.97
2022-12-03T10:16:21.483Z,32.30
2022-12-03T10:18:53.323Z,28.07
2022-12-03T10:21:30.627Z,34.03
2022-12-03T10:24:20.621Z,29.90
2022-12-03T10:26:48.625Z,32.20
2022-12-03T10:29:19.145Z,32.67
2022-12-03T10:31:45.990Z,32.83
2022-12-03T10:34:12.327Z,28.37
2022-12-03T10:36:38.746Z,29.73
2022-12-03T10:39:06.377Z,27.47
2022-12-03T10:41:32.730Z,31.50
2022-12-03T10:44:14.387Z,36.10
2022-12-03T10:46:41.109Z,38.50
2022-12-03T10:49:16.078Z,29.33
2022-12-03T10:51:43.587Z,32.40
2022-12-03T10:54:18.097Z,32.93
2022-12-03T10:56:45.190Z,30.03
2022-12-03T10:59:17.718Z,33.40
2022-12-03T11:01:44.383Z,31.50
2022-12-03T11:04:19.702Z,30.93
2022-12-03T11:06:46.073Z,36.50
2022-12-03T11:09:18.588Z,33.50
2022-12-03T11:11:45.209Z,28.67
2022-12-03T11:14:11.768Z,32.90
2022-12-03T11:16:41.137Z,32.00
2022-12-03T11:19:13.373Z,30.93
2022-12-03T11:22:10.066Z,26.63
2022-12-03T11:24:38.307Z,31.23
2022-12-03T11:27:04.576Z,33.43
2022-12-03T11:29:52.218Z,24.43
2022-12-03T11:32:43.348Z,30.70
2022-12-03T11:35:27.106Z,31.10
2022-12-03T11:37:53.492Z,32.00
2022-12-03T11:40:19.779Z,23.50
2022-12-03T11:42:48.865Z,30.80
2022-12-03T11:45:19.383Z,26.43
2022-12-03T11:48:00.945Z,23.50
2022-12-03T11:50:39.056Z,23.00
2022-12-03T11:53:24.622Z,24.93
2022-12-03T11:56:06.281Z,27.00
2022-12-03T11:58:34.448Z,24.40
2022-12-03T12:01:04.016Z,21.83
2022-12-03T12:03:36.025Z,26.90
2022-12-03T12:06:06.222Z,26.17
2022-12-03T12:08:38.188Z,27.07
2022-12-03T12:11:16.871Z,27.67
2022-12-03T12:13:43.198Z,26.80
2022-12-03T12:16:10.140Z,20.50
2022-12-03T12:18:37.662Z,28.00
2022-12-03T12:21:44.276Z,25.30
2022-12-03T12:24:47.726Z,25.83
2022-12-03T12:27:23.749Z,25.00
2022-12-03T12:30:02.177Z,32.50
2022-12-03T12:32:51.813Z,27.73
2022-12-03T12:35:25.897Z,26.07
2022-12-03T12:38:07.251Z,27.10
2022-12-03T12:40:42.423Z,24.80
2022-12-03T12:43:14.357Z,25.17
2022-12-03T12:45:43.600Z,28.93
2022-12-03T12:48:09.863Z,25.53
2022-12-03T12:50:43.673Z,34.73
2022-12-03T12:53:26.285Z,26.03
2022-12-03T12:55:58.581Z,25.87
2022-12-03T12:58:25.750Z,27.83
2022-12-03T13:00:54.851Z,22.60
2022-12-03T13:03:25.457Z,26.80
2022-12-03T13:05:53.488Z,26.10
2022-12-03T13:08:32.012Z,27.97
2022-12-03T13:11:00.695Z,27.87
2022-12-03T13:13:30.216Z,23.87
2022-12-03T13:16:06.356Z,29.50
2022-12-03T13:18:42.934Z,35.13
2022-12-03T13:21:21.020Z,31.73
2022-12-03T13:23:49.045Z,24.90
2022-12-03T13:26:39.241Z,30.80
2022-12-03T13:29:26.096Z,30.50
2022-12-03T13:31:55.593Z,29.73
2022-12-03T13:34:27.500Z,28.70
2022-12-03T13:36:58.012Z,30.90
2022-12-03T13:39:33.242Z,31.43
2022-12-03T13:42:26.967Z,28.40
2022-12-03T13:44:53.576Z,31.67
2022-12-03T13:47:22.526Z,26.30
2022-12-03T13:50:04.528Z,31.60
2022-12-03T13:52:34.650Z,29.80
2022-12-03T13:55:03.247Z,29.90
2022-12-03T13:57:29.616Z,25.97
2022-12-03T13:59:56.229Z,26.70
2022-12-03T14:02:22.894Z,27.20
2022-12-03T14:04:49.357Z,24.07
2022-12-03T14:07:15.696Z,24.00
2022-12-03T14:09:42.087Z,27.67
2022-12-03T14:12:26.710Z,29.33
2022-12-03T14:14:59.499Z,28.97
2022-12-03T14:17:25.873Z,28.57
2022-12-03T14:19:52.864Z,26.27
2022-12-03T14:22:23.160Z,27.27
2022-12-03T14:24:50.110Z,28.43
2022-12-03T14:27:16.482Z,23.93
2022-12-03T14:29:42.897Z,26.30
2022-12-03T14:32:09.294Z,29.60
2022-12-03T14:34:35.683Z,27.77
2022-12-03T14:37:02.098Z,26.07
2022-12-03T14:39:28.473Z,31.40
2022-12-03T14:42:13.066Z,25.07
2022-12-03T14:44:46.680Z,21.73
2022-12-03T14:47:16.905Z,26.40
2022-12-03T14:49:43.334Z,27.70
2022-12-03T14:52:12.451Z,29.40
2022-12-03T14:54:41.905Z,22.13
2022-12-03T14:57:08.814Z,28.87
2022-12-03T14:59:35.142Z,28.57
2022-12-03T15:02:01.588Z,25.93
2022-12-03T15:04:28.057Z,31.10
2022-12-03T15:06:54.906Z,31.50
2022-12-03T15:09:21.466Z,31.90
2022-12-03T15:11:47.779Z,37.60
2022-12-03T15:14:14.160Z,31.30
2022-12-03T15:16:40.586Z,31.33
2022-12-03T15:19:07.041Z,28.17
2022-12-03T15:21:34.782Z,29.90
2022-12-03T15:24:16.393Z,32.40
2022-12-03T15:26:42.726Z,34.70
2022-12-03T15:29:09.063Z,41.53
2022-12-03T15:31:35.525Z,36.03
2022-12-03T15:34:01.902Z,44.27
2022-12-03T15:36:28.274Z,40.07
2022-12-03T15:38:54.638Z,41.30
2022-12-03T15:41:21.398Z,37.37
2022-12-03T15:43:49.014Z,40.20
2022-12-03T15:46:15.864Z,34.37
2022-12-03T15:48:42.461Z,39.50
2022-12-03T15:51:08.773Z,37.27
2022-12-03T15:53:35.182Z,33.10
2022-12-03T15:56:01.566Z,37.50
2022-12-03T15:58:28.409Z,33.67
2022-12-03T16:00:55.112Z,41.40
2022-12-03T16:03:21.525Z,40.43
2022-12-03T16:05:48.072Z,42.40
2022-12-03T16:08:14.513Z,34.57
2022-12-03T16:10:40.880Z,39.90
2022-12-03T16:13:07.275Z,36.97
2022-12-03T16:15:35.020Z,38.07
2022-12-03T16:18:01.522Z,36.37
2022-12-03T16:20:30.157Z,38.70
2022-12-03T16:22:57.694Z,33.40
2022-12-03T16:25:24.030Z,36.33
2022-12-03T16:27:53.215Z,38.80
2022-12-03T16:30:19.631Z,36.40
2022-12-03T16:32:45.981Z,34.47
2022-12-03T16:35:12.329Z,30.87
2022-12-03T16:37:38.758Z,31.50
2022-12-03T16:40:13.944Z,36.50
2022-12-03T16:42:46.636Z,37.40
2022-12-03T16:45:24.900Z,33.53
2022-12-03T16:47:51.354Z,38.10
2022-12-03T16:50:31.163Z,40.43
2022-12-03T16:53:03.494Z,30.30
2022-12-03T16:55:29.853Z,42.13
2022-12-03T16:57:56.573Z,34.57
2022-12-03T17:00:23.003Z,37.10
2022-12-03T17:02:49.421Z,31.97
2022-12-03T17:05:15.971Z,38.87
2022-12-03T17:07:42.588Z,30.00
2022-12-03T17:10:09.418Z,31.93
2022-12-03T17:13:01.076Z,35.37
2022-12-03T17:15:22.246Z,36.93
2022-12-03T17:17:48.824Z,33.20
2022-12-03T17:20:17.079Z,34.40
2022-12-03T17:22:43.566Z,30.10
2022-12-03T17:25:10.894Z,35.50
2022-12-03T17:27:42.069Z,33.97
2022-12-03T17:30:11.915Z,34.77
2022-12-03T17:32:38.343Z,35.83
2022-12-03T17:35:05.071Z,27.17
2022-12-03T17:37:31.405Z,27.80
2022-12-03T17:39:57.773Z,33.87
2022-12-03T17:42:24.173Z,33.10
2022-12-03T17:44:50.512Z,33.17
2022-12-03T17:47:16.823Z,36.67
2022-12-03T17:49:43.171Z,35.40
2022-12-03T17:52:09.526Z,30.97
2022-12-03T17:54:55.583Z,34.40
2022-12-03T17:57:22.164Z,32.33
2022-12-03T17:59:48.654Z,30.80
2022-12-03T18:02:15.479Z,29.77
2022-12-03T18:04:41.865Z,36.30
2022-12-03T18:07:08.225Z,29.77
2022-12-03T18:09:34.610Z,32.77
2022-12-03T18:12:01.024Z,35.33
2022-12-03T18:14:27.386Z,35.03
2022-12-03T18:16:53.735Z,30.73
2022-12-03T18:19:24.365Z,34.67
2022-12-03T18:21:57.008Z,27.47
2022-12-03T18:24:26.495Z,32.97
2022-12-03T18:27:02.048Z,36.10
2022-12-03T18:29:28.411Z,35.43
2022-12-03T18:31:54.826Z,33.70
2022-12-03T18:34:21.345Z,31.50
2022-12-03T18:36:48.628Z,32.50
2022-12-03T18:39:24.105Z,33.10
2022-12-03T18:41:53.740Z,35.17
2022-12-03T18:44:23.034Z,30.23
2022-12-03T18:46:54.336Z,29.17
2022-12-03T18:49:21.459Z,35.03
2022-12-03T18:51:59.476Z,34.37
2022-12-03T18:54:29.080Z,31.27
2022-12-03T18:56:55.437Z,31.93
2022-12-03T18:59:28.044Z,37.63
2022-12-03T19:01:54.519Z,31.33
2022-12-03T19:04:20.961Z,36.53
2022-12-03T19:06:47.355Z,32.60
2022-12-03T19:09:14.232Z,34.90
2022-12-03T19:11:40.702Z,29.97
2022-12-03T19:14:13.739Z,34.10
2022-12-03T19:16:42.301Z,37.90
2022-12-03T19:19:11.608Z,31.60
2022-12-03T19:21:43.594Z,35.90
2022-12-03T19:24:28.039Z,33.10
2022-12-03T19:26:56.624Z,33.77
2022-12-03T19:29:26.497Z,34.07
2022-12-03T19:31:53.077Z,34.87
2022-12-03T19:34:20.238Z,27.03
2022-12-03T19:36:49.731Z,30.17
2022-12-03T19:39:19.165Z,34.10
2022-12-03T19:41:49.128Z,34.40
2022-12-03T19:44:17.748Z,35.13
2022-12-03T19:46:45.865Z,35.20
2022-12-03T19:49:21.334Z,33.53
2022-12-03T19:52:14.052Z,30.17
2022-12-03T19:55:02.019Z,32.60
2022-12-03T19:57:28.381Z,38.67
2022-12-03T19:59:55.243Z,34.27
2022-12-03T20:02:21.904Z,34.33
2022-12-03T20:04:54.427Z,39.97
2022-12-03T20:07:20.800Z,34.83
2022-12-03T20:09:50.790Z,37.07
2022-12-03T20:12:17.255Z,39.20
2022-12-03T20:17:30.706Z,37.67
2022-12-03T20:19:59.565Z,37.60
2022-12-03T20:22:25.984Z,43.63
2022-12-03T20:24:52.352Z,36.10
2022-12-03T20:27:22.850Z,45.13
2022-12-03T20:29:49.659Z,41.60
2022-12-03T20:32:16.070Z,38.63
2022-12-03T20:34:44.242Z,45.60
2022-12-03T20:37:10.778Z,41.13
2022-12-03T20:39:37.126Z,38.90
2022-12-03T20:42:03.609Z,43.97
2022-12-03T20:44:30.152Z,44.40
2022-12-03T20:46:57.090Z,39.93
2022-12-03T20:49:23.624Z,47.60
2022-12-03T20:51:50.266Z,46.03
2022-12-03T20:54:16.582Z,42.60
2022-12-03T20:56:42.958Z,42.73
2022-12-03T20:59:12.487Z,42.60
2022-12-03T21:01:40.261Z,38.27
2022-12-03T21:04:07.904Z,45.40
2022-12-03T21:06:36.016Z,40.67
2022-12-03T21:09:05.264Z,43.23
2022-12-03T21:11:33.385Z,47.33
2022-12-03T21:14:00.437Z,49.83
2022-12-03T21:16:59.045Z,44.63
2022-12-03T21:19:17.864Z,45.10
2022-12-03T21:21:44.218Z,50.57
2022-12-03T21:24:11.745Z,43.70
2022-12-03T21:26:38.127Z,46.33
2022-12-03T21:29:04.471Z,46.27
2022-12-03T21:31:31.922Z,45.13
2022-12-03T21:33:59.304Z,45.10
2022-12-03T21:36:26.019Z,57.53
2022-12-03T21:38:52.639Z,46.23
2022-12-03T21:41:19.226Z,49.63
2022-12-03T21:43:45.741Z,47.60
2022-12-03T21:47:12.689Z,48.00
2022-12-03T21:49:01.161Z,51.20
2022-12-03T21:51:27.484Z,42.97
2022-12-03T21:53:53.829Z,46.57
2022-12-03T21:56:20.599Z,49.27
2022-12-03T21:58:47.386Z,48.67
2022-12-03T22:01:22.714Z,46.23
2022-12-03T22:03:50.475Z,51.07
2022-12-03T22:06:18.221Z,54.40
2022-12-03T22:08:45.091Z,61.10
2022-12-03T22:11:14.211Z,51.93
2022-12-03T22:13:41.215Z,53.03
2022-12-03T22:16:10.143Z,61.67
2022-12-03T22:18:36.784Z,53.43
2022-12-03T22:21:05.632Z,53.17
2022-12-03T22:23:32.381Z,48.07
2022-12-03T22:26:03.662Z,52.70
2022-12-03T22:28:30.638Z,56.10
2022-12-03T22:30:57.206Z,57.77
2022-12-03T22:33:23.669Z,56.03
2022-12-03T22:36:00.963Z,51.93
2022-12-03T22:38:29.145Z,66.50
2022-12-03T22:40:55.773Z,46.70
2022-12-03T22:43:22.273Z,62.13
2022-12-03T22:45:53.591Z,52.93
2022-12-03T22:48:20.098Z,58.50
2022-12-03T22:50:47.505Z,61.03
2022-12-03T22:53:14.579Z,64.57
2022-12-03T22:55:41.661Z,56.67
2022-12-03T22:58:08.950Z,49.63
2022-12-03T23:00:40.487Z,59.90
2022-12-03T23:03:07.882Z,54.50
2022-12-03T23:05:36.843Z,59.60
2022-12-03T23:08:05.531Z,57.07
2022-12-03T23:10:38.066Z,60.43
2022-12-03T23:13:05.471Z,54.10
2022-12-03T23:15:32.297Z,55.57
2022-12-03T23:17:59.183Z,57.30
2022-12-03T23:20:26.357Z,59.13
2022-12-03T23:22:53.783Z,66.97
2022-12-03T23:25:21.059Z,57.83
2022-12-03T23:27:47.502Z,57.33
2022-12-03T23:30:16.195Z,57.93
2022-12-03T23:32:44.273Z,54.40
2022-12-03T23:35:11.990Z,59.60
2022-12-03T23:37:38.527Z,60.80
2022-12-03T23:40:05.552Z,50.77
2022-12-03T23:42:32.315Z,59.10
2022-12-03T23:44:58.642Z,54.77
2022-12-03T23:47:24.999Z,52.83
2022-12-03T23:49:51.351Z,52.00
2022-12-03T23:52:17.700Z,59.60
2022-12-03T23:54:44.061Z,51.90
2022-12-03T23:57:10.410Z,48.10
2022-12-03T23:59:36.826Z,48.90
